sensor_id;sensor_type;location;lat;lon;timestamp;P1;durP1;ratioP1;P2;durP2;ratioP2
19087;SDS011;9676;50.916;13.352;2023-08-24T00:00:33;15.10;;;10.93;;
19087;SDS011;9676;50.916;13.352;2023-08-24T00:03:22;11.90;;;10.70;;
19087;SDS011;9676;50.916;13.352;2023-08-24T00:06:12;11.63;;;10.53;;
19087;SDS011;9676;50.916;13.352;2023-08-24T00:09:03;13.77;;;10.37;;
19087;SDS011;9676;50.916;13.352;2023-08-24T00:11:53;12.43;;;10.83;;
19087;SDS011;9676;50.916;13.352;2023-08-24T00:14:42;14.93;;;11.00;;
19087;SDS011;9676;50.916;13.352;2023-08-24T00:17:32;12.67;;;11.00;;
19087;SDS011;9676;50.916;13.352;2023-08-24T00:20:21;12.57;;;11.10;;
19087;SDS011;9676;50.916;13.352;2023-08-24T00:23:11;12.73;;;11.43;;
19087;SDS011;9676;50.916;13.352;2023-08-24T00:26:02;15.27;;;11.10;;
19087;SDS011;9676;50.916;13.352;2023-08-24T00:28:51;12.03;;;10.77;;
19087;SDS011;9676;50.916;13.352;2023-08-24T00:31:40;11.50;;;10.40;;
19087;SDS011;9676;50.916;13.352;2023-08-24T00:34:30;11.40;;;10.30;;
19087;SDS011;9676;50.916;13.352;2023-08-24T00:37:20;12.60;;;10.57;;
19087;SDS011;9676;50.916;13.352;2023-08-24T00:40:09;11.63;;;10.53;;
19087;SDS011;9676;50.916;13.352;2023-08-24T00:43:00;12.10;;;10.90;;
19087;SDS011;9676;50.916;13.352;2023-08-24T00:45:52;11.97;;;10.70;;
19087;SDS011;9676;50.916;13.352;2023-08-24T00:48:46;11.50;;;10.40;;
19087;SDS011;9676;50.916;13.352;2023-08-24T00:51:36;11.77;;;10.53;;
19087;SDS011;9676;50.916;13.352;2023-08-24T00:54:27;16.33;;;11.30;;
19087;SDS011;9676;50.916;13.352;2023-08-24T00:57:16;11.80;;;10.67;;
19087;SDS011;9676;50.916;13.352;2023-08-24T01:00:09;12.10;;;11.00;;
19087;SDS011;9676;50.916;13.352;2023-08-24T01:02:59;12.13;;;10.83;;
19087;SDS011;9676;50.916;13.352;2023-08-24T01:05:49;11.57;;;10.47;;
19087;SDS011;9676;50.916;13.352;2023-08-24T01:08:38;12.53;;;11.20;;
19087;SDS011;9676;50.916;13.352;2023-08-24T01:11:31;11.93;;;10.73;;
19087;SDS011;9676;50.916;13.352;2023-08-24T01:14:35;13.20;;;10.70;;
19087;SDS011;9676;50.916;13.352;2023-08-24T01:17:34;11.80;;;10.70;;
19087;SDS011;9676;50.916;13.352;2023-08-24T01:20:24;11.63;;;10.53;;
19087;SDS011;9676;50.916;13.352;2023-08-24T01:23:18;12.73;;;11.10;;
19087;SDS011;9676;50.916;13.352;2023-08-24T01:26:21;11.57;;;10.40;;
19087;SDS011;9676;50.916;13.352;2023-08-24T01:29:10;11.73;;;10.63;;
19087;SDS011;9676;50.916;13.352;2023-08-24T01:32:00;12.57;;;11.40;;
19087;SDS011;9676;50.916;13.352;2023-08-24T01:34:50;13.13;;;10.90;;
19087;SDS011;9676;50.916;13.352;2023-08-24T01:37:39;13.60;;;10.90;;
19087;SDS011;9676;50.916;13.352;2023-08-24T01:40:31;15.73;;;11.00;;
19087;SDS011;9676;50.916;13.352;2023-08-24T01:43:35;13.00;;;11.50;;
19087;SDS011;9676;50.916;13.352;2023-08-24T01:46:30;13.20;;;11.90;;
19087;SDS011;9676;50.916;13.352;2023-08-24T01:49:21;14.10;;;11.50;;
19087;SDS011;9676;50.916;13.352;2023-08-24T01:52:13;12.30;;;11.20;;
19087;SDS011;9676;50.916;13.352;2023-08-24T01:55:03;15.70;;;10.90;;
19087;SDS011;9676;50.916;13.352;2023-08-24T01:57:54;13.27;;;10.90;;
19087;SDS011;9676;50.916;13.352;2023-08-24T02:00:46;12.10;;;10.90;;
19087;SDS011;9676;50.916;13.352;2023-08-24T02:03:35;13.10;;;11.23;;
19087;SDS011;9676;50.916;13.352;2023-08-24T02:06:27;12.10;;;10.83;;
19087;SDS011;9676;50.916;13.352;2023-08-24T02:09:16;12.43;;;11.13;;
19087;SDS011;9676;50.916;13.352;2023-08-24T02:12:05;12.10;;;10.90;;
19087;SDS011;9676;50.916;13.352;2023-08-24T02:14:55;12.70;;;11.50;;
19087;SDS011;9676;50.916;13.352;2023-08-24T02:17:46;16.43;;;11.40;;
19087;SDS011;9676;50.916;13.352;2023-08-24T02:20:36;13.83;;;11.30;;
19087;SDS011;9676;50.916;13.352;2023-08-24T02:23:26;12.30;;;11.03;;
19087;SDS011;9676;50.916;13.352;2023-08-24T02:26:16;12.40;;;11.20;;
19087;SDS011;9676;50.916;13.352;2023-08-24T02:29:06;11.57;;;10.57;;
19087;SDS011;9676;50.916;13.352;2023-08-24T02:31:56;12.60;;;10.97;;
19087;SDS011;9676;50.916;13.352;2023-08-24T02:34:47;12.27;;;11.17;;
19087;SDS011;9676;50.916;13.352;2023-08-24T02:37:36;11.90;;;10.80;;
19087;SDS011;9676;50.916;13.352;2023-08-24T02:40:26;11.90;;;10.80;;
19087;SDS011;9676;50.916;13.352;2023-08-24T02:43:15;12.43;;;10.97;;
19087;SDS011;9676;50.916;13.352;2023-08-24T02:46:06;12.67;;;10.50;;
19087;SDS011;9676;50.916;13.352;2023-08-24T02:48:56;12.30;;;11.10;;
19087;SDS011;9676;50.916;13.352;2023-08-24T02:51:47;12.63;;;11.40;;
19087;SDS011;9676;50.916;13.352;2023-08-24T02:54:37;12.20;;;11.07;;
19087;SDS011;9676;50.916;13.352;2023-08-24T02:57:26;12.20;;;10.90;;
19087;SDS011;9676;50.916;13.352;2023-08-24T03:00:16;13.40;;;12.00;;
19087;SDS011;9676;50.916;13.352;2023-08-24T03:03:06;12.67;;;11.43;;
19087;SDS011;9676;50.916;13.352;2023-08-24T03:05:55;12.60;;;11.40;;
19087;SDS011;9676;50.916;13.352;2023-08-24T03:08:49;12.63;;;11.40;;
19087;SDS011;9676;50.916;13.352;2023-08-24T03:11:39;11.80;;;10.70;;
19087;SDS011;9676;50.916;13.352;2023-08-24T03:14:31;12.47;;;11.10;;
19087;SDS011;9676;50.916;13.352;2023-08-24T03:17:20;13.40;;;11.20;;
19087;SDS011;9676;50.916;13.352;2023-08-24T03:20:10;12.13;;;10.80;;
19087;SDS011;9676;50.916;13.352;2023-08-24T03:23:00;11.70;;;10.67;;
19087;SDS011;9676;50.916;13.352;2023-08-24T03:25:52;12.10;;;10.90;;
19087;SDS011;9676;50.916;13.352;2023-08-24T03:28:41;12.13;;;10.93;;
19087;SDS011;9676;50.916;13.352;2023-08-24T03:31:30;11.57;;;10.57;;
19087;SDS011;9676;50.916;13.352;2023-08-24T03:34:20;12.37;;;10.77;;
19087;SDS011;9676;50.916;13.352;2023-08-24T03:37:10;12.80;;;11.47;;
19087;SDS011;9676;50.916;13.352;2023-08-24T03:39:59;12.70;;;11.40;;
19087;SDS011;9676;50.916;13.352;2023-08-24T03:42:51;12.23;;;10.90;;
19087;SDS011;9676;50.916;13.352;2023-08-24T03:45:41;13.10;;;11.90;;
19087;SDS011;9676;50.916;13.352;2023-08-24T03:48:31;12.03;;;10.83;;
19087;SDS011;9676;50.916;13.352;2023-08-24T03:51:21;12.60;;;11.47;;
19087;SDS011;9676;50.916;13.352;2023-08-24T03:54:10;14.60;;;11.70;;
19087;SDS011;9676;50.916;13.352;2023-08-24T03:57:01;13.30;;;11.40;;
19087;SDS011;9676;50.916;13.352;2023-08-24T03:59:52;12.53;;;11.43;;
19087;SDS011;9676;50.916;13.352;2023-08-24T04:02:41;12.40;;;11.20;;
19087;SDS011;9676;50.916;13.352;2023-08-24T04:05:39;12.57;;;11.37;;
19087;SDS011;9676;50.916;13.352;2023-08-24T04:08:28;12.20;;;11.00;;
19087;SDS011;9676;50.916;13.352;2023-08-24T04:11:17;15.23;;;11.40;;
19087;SDS011;9676;50.916;13.352;2023-08-24T04:14:07;12.63;;;11.33;;
19087;SDS011;9676;50.916;13.352;2023-08-24T04:16:57;12.50;;;11.40;;
19087;SDS011;9676;50.916;13.352;2023-08-24T04:19:47;12.03;;;10.93;;
19087;SDS011;9676;50.916;13.352;2023-08-24T04:22:36;12.50;;;11.40;;
19087;SDS011;9676;50.916;13.352;2023-08-24T04:25:26;11.70;;;10.60;;
19087;SDS011;9676;50.916;13.352;2023-08-24T04:28:16;13.00;;;11.60;;
19087;SDS011;9676;50.916;13.352;2023-08-24T04:31:06;12.33;;;11.23;;
19087;SDS011;9676;50.916;13.352;2023-08-24T04:33:56;12.30;;;11.10;;
19087;SDS011;9676;50.916;13.352;2023-08-24T04:36:46;12.57;;;11.37;;
19087;SDS011;9676;50.916;13.352;2023-08-24T04:39:35;12.20;;;11.10;;
19087;SDS011;9676;50.916;13.352;2023-08-24T04:42:24;12.50;;;11.27;;
19087;SDS011;9676;50.916;13.352;2023-08-24T04:45:14;12.60;;;11.40;;
19087;SDS011;9676;50.916;13.352;2023-08-24T04:48:03;12.27;;;11.07;;
19087;SDS011;9676;50.916;13.352;2023-08-24T04:50:55;15.53;;;11.60;;
19087;SDS011;9676;50.916;13.352;2023-08-24T04:53:44;12.23;;;11.13;;
19087;SDS011;9676;50.916;13.352;2023-08-24T04:56:34;12.20;;;10.90;;
19087;SDS011;9676;50.916;13.352;2023-08-24T04:59:23;11.97;;;10.80;;
19087;SDS011;9676;50.916;13.352;2023-08-24T05:02:13;15.97;;;11.00;;
19087;SDS011;9676;50.916;13.352;2023-08-24T05:05:02;12.13;;;11.00;;
19087;SDS011;9676;50.916;13.352;2023-08-24T05:07:54;12.83;;;11.63;;
19087;SDS011;9676;50.916;13.352;2023-08-24T05:10:43;12.90;;;11.70;;
19087;SDS011;9676;50.916;13.352;2023-08-24T05:13:33;13.90;;;11.93;;
19087;SDS011;9676;50.916;13.352;2023-08-24T05:16:23;13.40;;;12.10;;
19087;SDS011;9676;50.916;13.352;2023-08-24T05:19:12;12.90;;;11.70;;
19087;SDS011;9676;50.916;13.352;2023-08-24T05:22:02;12.17;;;11.07;;
19087;SDS011;9676;50.916;13.352;2023-08-24T05:24:53;12.40;;;11.10;;
19087;SDS011;9676;50.916;13.352;2023-08-24T05:27:42;13.57;;;10.60;;
19087;SDS011;9676;50.916;13.352;2023-08-24T05:30:32;11.87;;;10.77;;
19087;SDS011;9676;50.916;13.352;2023-08-24T05:33:22;11.23;;;10.13;;
19087;SDS011;9676;50.916;13.352;2023-08-24T05:36:12;11.33;;;10.13;;
19087;SDS011;9676;50.916;13.352;2023-08-24T05:39:02;11.00;;;10.00;;
19087;SDS011;9676;50.916;13.352;2023-08-24T05:41:54;10.90;;;9.90;;
19087;SDS011;9676;50.916;13.352;2023-08-24T05:44:43;11.43;;;10.20;;
19087;SDS011;9676;50.916;13.352;2023-08-24T05:47:33;11.37;;;10.17;;
19087;SDS011;9676;50.916;13.352;2023-08-24T05:50:22;11.00;;;10.00;;
19087;SDS011;9676;50.916;13.352;2023-08-24T05:53:13;12.30;;;9.87;;
19087;SDS011;9676;50.916;13.352;2023-08-24T05:56:03;10.37;;;9.37;;
19087;SDS011;9676;50.916;13.352;2023-08-24T05:58:54;12.27;;;9.60;;
19087;SDS011;9676;50.916;13.352;2023-08-24T06:01:43;10.20;;;9.20;;
19087;SDS011;9676;50.916;13.352;2023-08-24T06:04:33;10.50;;;9.50;;
19087;SDS011;9676;50.916;13.352;2023-08-24T06:07:22;10.67;;;9.57;;
19087;SDS011;9676;50.916;13.352;2023-08-24T06:10:11;10.90;;;9.10;;
19087;SDS011;9676;50.916;13.352;2023-08-24T06:13:01;10.43;;;9.33;;
19087;SDS011;9676;50.916;13.352;2023-08-24T06:15:52;9.80;;;8.90;;
19087;SDS011;9676;50.916;13.352;2023-08-24T06:18:42;10.30;;;9.23;;
19087;SDS011;9676;50.916;13.352;2023-08-24T06:21:32;9.93;;;8.93;;
19087;SDS011;9676;50.916;13.352;2023-08-24T06:24:21;10.30;;;9.20;;
19087;SDS011;9676;50.916;13.352;2023-08-24T06:27:10;9.90;;;8.90;;
19087;SDS011;9676;50.916;13.352;2023-08-24T06:29:59;9.80;;;8.80;;
19087;SDS011;9676;50.916;13.352;2023-08-24T06:32:51;9.63;;;8.67;;
19087;SDS011;9676;50.916;13.352;2023-08-24T06:35:41;9.97;;;8.63;;
19087;SDS011;9676;50.916;13.352;2023-08-24T06:38:30;9.33;;;8.47;;
19087;SDS011;9676;50.916;13.352;2023-08-24T06:41:20;9.43;;;8.60;;
19087;SDS011;9676;50.916;13.352;2023-08-24T06:44:09;10.03;;;9.10;;
19087;SDS011;9676;50.916;13.352;2023-08-24T06:46:59;9.43;;;8.63;;
19087;SDS011;9676;50.916;13.352;2023-08-24T06:49:53;9.52;;;8.60;;
19087;SDS011;9676;50.916;13.352;2023-08-24T06:52:42;9.32;;;8.52;;
19087;SDS011;9676;50.916;13.352;2023-08-24T06:55:32;11.50;;;8.77;;
19087;SDS011;9676;50.916;13.352;2023-08-24T06:58:21;10.73;;;8.63;;
19087;SDS011;9676;50.916;13.352;2023-08-24T07:01:11;10.23;;;9.23;;
19087;SDS011;9676;50.916;13.352;2023-08-24T07:04:00;10.20;;;9.18;;
19087;SDS011;9676;50.916;13.352;2023-08-24T07:06:52;14.43;;;8.98;;
19087;SDS011;9676;50.916;13.352;2023-08-24T07:09:43;9.50;;;8.60;;
19087;SDS011;9676;50.916;13.352;2023-08-24T07:12:33;11.63;;;8.75;;
19087;SDS011;9676;50.916;13.352;2023-08-24T07:15:22;12.30;;;8.40;;
19087;SDS011;9676;50.916;13.352;2023-08-24T07:18:12;9.27;;;8.48;;
19087;SDS011;9676;50.916;13.352;2023-08-24T07:21:01;9.05;;;8.25;;
19087;SDS011;9676;50.916;13.352;2023-08-24T07:23:52;8.82;;;8.02;;
19087;SDS011;9676;50.916;13.352;2023-08-24T07:26:41;9.20;;;8.40;;
19087;SDS011;9676;50.916;13.352;2023-08-24T07:29:31;9.13;;;8.32;;
19087;SDS011;9676;50.916;13.352;2023-08-24T07:32:20;10.25;;;9.25;;
19087;SDS011;9676;50.916;13.352;2023-08-24T07:35:11;9.15;;;8.40;;
19087;SDS011;9676;50.916;13.352;2023-08-24T07:38:00;9.18;;;8.30;;
19087;SDS011;9676;50.916;13.352;2023-08-24T07:40:53;8.80;;;8.10;;
19087;SDS011;9676;50.916;13.352;2023-08-24T07:43:42;8.90;;;8.20;;
19087;SDS011;9676;50.916;13.352;2023-08-24T07:46:32;8.50;;;8.00;;
19087;SDS011;9676;50.916;13.352;2023-08-24T07:49:22;8.27;;;7.63;;
19087;SDS011;9676;50.916;13.352;2023-08-24T07:52:11;8.55;;;7.95;;
19087;SDS011;9676;50.916;13.352;2023-08-24T07:55:01;8.55;;;7.85;;
19087;SDS011;9676;50.916;13.352;2023-08-24T07:57:53;8.82;;;8.02;;
19087;SDS011;9676;50.916;13.352;2023-08-24T08:00:42;8.73;;;8.02;;
19087;SDS011;9676;50.916;13.352;2023-08-24T08:03:32;8.68;;;8.07;;
19087;SDS011;9676;50.916;13.352;2023-08-24T08:06:23;9.35;;;8.32;;
19087;SDS011;9676;50.916;13.352;2023-08-24T08:09:13;9.30;;;8.40;;
19087;SDS011;9676;50.916;13.352;2023-08-24T08:12:04;8.48;;;7.90;;
19087;SDS011;9676;50.916;13.352;2023-08-24T08:14:55;8.05;;;7.45;;
19087;SDS011;9676;50.916;13.352;2023-08-24T08:17:44;8.70;;;8.00;;
19087;SDS011;9676;50.916;13.352;2023-08-24T08:20:34;8.77;;;8.02;;
19087;SDS011;9676;50.916;13.352;2023-08-24T08:23:23;8.30;;;7.70;;
19087;SDS011;9676;50.916;13.352;2023-08-24T08:26:12;9.05;;;8.18;;
19087;SDS011;9676;50.916;13.352;2023-08-24T08:29:02;8.85;;;8.05;;
19087;SDS011;9676;50.916;13.352;2023-08-24T08:31:54;8.55;;;7.80;;
19087;SDS011;9676;50.916;13.352;2023-08-24T08:34:43;10.30;;;8.05;;
19087;SDS011;9676;50.916;13.352;2023-08-24T08:37:33;8.50;;;7.78;;
19087;SDS011;9676;50.916;13.352;2023-08-24T08:40:23;8.32;;;7.72;;
19087;SDS011;9676;50.916;13.352;2023-08-24T08:43:18;8.75;;;8.05;;
19087;SDS011;9676;50.916;13.352;2023-08-24T08:46:10;8.60;;;8.00;;
19087;SDS011;9676;50.916;13.352;2023-08-24T08:49:02;7.75;;;7.25;;
19087;SDS011;9676;50.916;13.352;2023-08-24T08:51:55;8.52;;;7.93;;
19087;SDS011;9676;50.916;13.352;2023-08-24T08:54:44;8.55;;;7.95;;
19087;SDS011;9676;50.916;13.352;2023-08-24T08:57:33;7.97;;;7.47;;
19087;SDS011;9676;50.916;13.352;2023-08-24T09:00:23;9.00;;;8.20;;
19087;SDS011;9676;50.916;13.352;2023-08-24T09:03:13;8.38;;;7.85;;
19087;SDS011;9676;50.916;13.352;2023-08-24T09:06:07;8.65;;;7.88;;
19087;SDS011;9676;50.916;13.352;2023-08-24T09:08:59;8.88;;;8.18;;
19087;SDS011;9676;50.916;13.352;2023-08-24T09:11:49;8.52;;;7.93;;
19087;SDS011;9676;50.916;13.352;2023-08-24T09:14:39;8.25;;;7.75;;
19087;SDS011;9676;50.916;13.352;2023-08-24T09:17:29;7.95;;;7.45;;
19087;SDS011;9676;50.916;13.352;2023-08-24T09:20:18;8.43;;;7.82;;
19087;SDS011;9676;50.916;13.352;2023-08-24T09:23:18;8.70;;;8.00;;
19087;SDS011;9676;50.916;13.352;2023-08-24T09:26:08;8.25;;;7.75;;
19087;SDS011;9676;50.916;13.352;2023-08-24T09:28:57;8.05;;;7.55;;
19087;SDS011;9676;50.916;13.352;2023-08-24T09:31:50;8.60;;;8.00;;
19087;SDS011;9676;50.916;13.352;2023-08-24T09:34:39;8.07;;;7.57;;
19087;SDS011;9676;50.916;13.352;2023-08-24T09:37:31;8.80;;;8.10;;
19087;SDS011;9676;50.916;13.352;2023-08-24T09:40:24;8.18;;;7.57;;
19087;SDS011;9676;50.916;13.352;2023-08-24T09:43:14;8.40;;;7.80;;
19087;SDS011;9676;50.916;13.352;2023-08-24T09:46:03;8.35;;;7.78;;
19087;SDS011;9676;50.916;13.352;2023-08-24T09:48:54;8.30;;;7.70;;
19087;SDS011;9676;50.916;13.352;2023-08-24T09:51:45;8.15;;;7.45;;
19087;SDS011;9676;50.916;13.352;2023-08-24T09:54:37;8.10;;;7.60;;
19087;SDS011;9676;50.916;13.352;2023-08-24T09:57:28;8.43;;;7.80;;
19087;SDS011;9676;50.916;13.352;2023-08-24T10:00:17;8.57;;;7.88;;
19087;SDS011;9676;50.916;13.352;2023-08-24T10:03:09;8.20;;;7.70;;
19087;SDS011;9676;50.916;13.352;2023-08-24T10:06:01;8.60;;;7.93;;
19087;SDS011;9676;50.916;13.352;2023-08-24T10:08:57;8.48;;;7.72;;
19087;SDS011;9676;50.916;13.352;2023-08-24T10:11:52;8.90;;;8.20;;
19087;SDS011;9676;50.916;13.352;2023-08-24T10:14:51;8.80;;;8.10;;
19087;SDS011;9676;50.916;13.352;2023-08-24T10:17:45;9.10;;;8.30;;
19087;SDS011;9676;50.916;13.352;2023-08-24T10:20:36;9.32;;;8.43;;
19087;SDS011;9676;50.916;13.352;2023-08-24T10:23:26;8.63;;;7.93;;
19087;SDS011;9676;50.916;13.352;2023-08-24T10:26:17;9.00;;;8.18;;
19087;SDS011;9676;50.916;13.352;2023-08-24T10:29:08;9.10;;;8.40;;
19087;SDS011;9676;50.916;13.352;2023-08-24T10:32:00;9.02;;;8.30;;
19087;SDS011;9676;50.916;13.352;2023-08-24T10:34:51;9.55;;;8.38;;
19087;SDS011;9676;50.916;13.352;2023-08-24T10:37:40;9.05;;;8.35;;
19087;SDS011;9676;50.916;13.352;2023-08-24T10:40:35;9.23;;;8.43;;
19087;SDS011;9676;50.916;13.352;2023-08-24T10:43:27;9.70;;;8.63;;
19087;SDS011;9676;50.916;13.352;2023-08-24T10:46:16;9.43;;;8.63;;
19087;SDS011;9676;50.916;13.352;2023-08-24T10:49:10;9.05;;;8.35;;
19087;SDS011;9676;50.916;13.352;2023-08-24T10:55:21;8.93;;;8.27;;
19087;SDS011;9676;50.916;13.352;2023-08-24T10:58:12;9.57;;;8.68;;
19087;SDS011;9676;50.916;13.352;2023-08-24T11:01:05;9.45;;;8.55;;
19087;SDS011;9676;50.916;13.352;2023-08-24T11:03:55;9.63;;;8.63;;
19087;SDS011;9676;50.916;13.352;2023-08-24T11:06:52;12.23;;;8.80;;
19087;SDS011;9676;50.916;13.352;2023-08-24T11:09:46;9.63;;;8.73;;
19087;SDS011;9676;50.916;13.352;2023-08-24T11:15:56;9.57;;;8.70;;
19087;SDS011;9676;50.916;13.352;2023-08-24T11:18:46;9.85;;;8.95;;
19087;SDS011;9676;50.916;13.352;2023-08-24T11:21:36;10.80;;;9.70;;
19087;SDS011;9676;50.916;13.352;2023-08-24T11:24:28;10.00;;;9.00;;
19087;SDS011;9676;50.916;13.352;2023-08-24T11:27:20;9.97;;;8.97;;
19087;SDS011;9676;50.916;13.352;2023-08-24T11:30:10;10.47;;;8.70;;
19087;SDS011;9676;50.916;13.352;2023-08-24T11:33:01;10.10;;;9.10;;
19087;SDS011;9676;50.916;13.352;2023-08-24T11:35:51;9.87;;;8.87;;
19087;SDS011;9676;50.916;13.352;2023-08-24T11:38:42;11.63;;;9.03;;
19087;SDS011;9676;50.916;13.352;2023-08-24T11:41:33;9.70;;;8.70;;
19087;SDS011;9676;50.916;13.352;2023-08-24T11:44:22;10.17;;;9.17;;
19087;SDS011;9676;50.916;13.352;2023-08-24T11:47:16;9.90;;;8.90;;
19087;SDS011;9676;50.916;13.352;2023-08-24T11:50:08;10.13;;;9.13;;
19087;SDS011;9676;50.916;13.352;2023-08-24T11:52:58;9.80;;;8.90;;
19087;SDS011;9676;50.916;13.352;2023-08-24T11:55:48;9.77;;;8.87;;
19087;SDS011;9676;50.916;13.352;2023-08-24T11:58:53;10.10;;;9.20;;
19087;SDS011;9676;50.916;13.352;2023-08-24T12:01:42;10.50;;;9.50;;
19087;SDS011;9676;50.916;13.352;2023-08-24T12:04:37;10.00;;;9.10;;
19087;SDS011;9676;50.916;13.352;2023-08-24T12:07:27;9.90;;;9.00;;
19087;SDS011;9676;50.916;13.352;2023-08-24T12:10:19;10.13;;;9.13;;
19087;SDS011;9676;50.916;13.352;2023-08-24T12:13:08;10.30;;;9.20;;
19087;SDS011;9676;50.916;13.352;2023-08-24T12:16:00;9.73;;;8.83;;
19087;SDS011;9676;50.916;13.352;2023-08-24T12:18:52;9.90;;;9.00;;
19087;SDS011;9676;50.916;13.352;2023-08-24T12:21:43;10.43;;;9.43;;
19087;SDS011;9676;50.916;13.352;2023-08-24T12:24:33;10.20;;;9.20;;
19087;SDS011;9676;50.916;13.352;2023-08-24T12:27:23;14.30;;;9.50;;
19087;SDS011;9676;50.916;13.352;2023-08-24T12:30:14;10.53;;;9.40;;
19087;SDS011;9676;50.916;13.352;2023-08-24T12:33:05;10.37;;;9.33;;
19087;SDS011;9676;50.916;13.352;2023-08-24T12:35:55;10.20;;;9.30;;
19087;SDS011;9676;50.916;13.352;2023-08-24T12:38:45;10.67;;;9.53;;
19087;SDS011;9676;50.916;13.352;2023-08-24T12:41:35;10.07;;;9.17;;
19087;SDS011;9676;50.916;13.352;2023-08-24T12:44:24;10.83;;;9.73;;
19087;SDS011;9676;50.916;13.352;2023-08-24T12:47:13;10.83;;;9.40;;
19087;SDS011;9676;50.916;13.352;2023-08-24T12:50:06;10.87;;;9.73;;
19087;SDS011;9676;50.916;13.352;2023-08-24T12:52:56;12.57;;;10.70;;
19087;SDS011;9676;50.916;13.352;2023-08-24T12:55:47;20.50;;;10.07;;
19087;SDS011;9676;50.916;13.352;2023-08-24T12:58:36;12.23;;;11.00;;
19087;SDS011;9676;50.916;13.352;2023-08-24T13:01:26;12.57;;;10.60;;
19087;SDS011;9676;50.916;13.352;2023-08-24T13:04:15;11.60;;;10.40;;
19087;SDS011;9676;50.916;13.352;2023-08-24T13:07:06;10.70;;;9.70;;
19087;SDS011;9676;50.916;13.352;2023-08-24T13:09:56;14.80;;;10.40;;
19087;SDS011;9676;50.916;13.352;2023-08-24T13:12:46;11.20;;;10.10;;
19087;SDS011;9676;50.916;13.352;2023-08-24T13:15:35;11.53;;;9.63;;
19087;SDS011;9676;50.916;13.352;2023-08-24T13:18:24;10.97;;;9.87;;
19087;SDS011;9676;50.916;13.352;2023-08-24T13:21:14;13.10;;;10.50;;
19087;SDS011;9676;50.916;13.352;2023-08-24T13:24:06;14.07;;;9.90;;
19087;SDS011;9676;50.916;13.352;2023-08-24T13:26:55;15.83;;;9.70;;
19087;SDS011;9676;50.916;13.352;2023-08-24T13:29:45;10.80;;;9.70;;
19087;SDS011;9676;50.916;13.352;2023-08-24T13:32:34;12.70;;;9.70;;
19087;SDS011;9676;50.916;13.352;2023-08-24T13:35:24;11.77;;;10.17;;
19087;SDS011;9676;50.916;13.352;2023-08-24T13:38:13;13.90;;;9.87;;
19087;SDS011;9676;50.916;13.352;2023-08-24T13:41:04;11.43;;;10.33;;
19087;SDS011;9676;50.916;13.352;2023-08-24T13:43:53;11.57;;;10.33;;
19087;SDS011;9676;50.916;13.352;2023-08-24T13:46:43;12.07;;;10.13;;
19087;SDS011;9676;50.916;13.352;2023-08-24T13:49:32;14.23;;;9.83;;
19087;SDS011;9676;50.916;13.352;2023-08-24T13:52:27;11.10;;;10.00;;
19087;SDS011;9676;50.916;13.352;2023-08-24T13:55:17;11.60;;;10.20;;
19087;SDS011;9676;50.916;13.352;2023-08-24T13:58:08;12.83;;;10.47;;
19087;SDS011;9676;50.916;13.352;2023-08-24T14:00:57;11.03;;;9.80;;
19087;SDS011;9676;50.916;13.352;2023-08-24T14:03:46;11.23;;;10.03;;
19087;SDS011;9676;50.916;13.352;2023-08-24T14:06:37;14.83;;;10.30;;
19087;SDS011;9676;50.916;13.352;2023-08-24T14:09:26;11.53;;;10.33;;
19087;SDS011;9676;50.916;13.352;2023-08-24T14:12:15;11.10;;;10.00;;
19087;SDS011;9676;50.916;13.352;2023-08-24T14:15:07;11.40;;;10.07;;
19087;SDS011;9676;50.916;13.352;2023-08-24T14:17:58;11.40;;;10.20;;
19087;SDS011;9676;50.916;13.352;2023-08-24T14:20:48;11.30;;;10.10;;
19087;SDS011;9676;50.916;13.352;2023-08-24T14:23:37;13.10;;;10.03;;
19087;SDS011;9676;50.916;13.352;2023-08-24T14:26:29;10.90;;;9.63;;
19087;SDS011;9676;50.916;13.352;2023-08-24T14:29:18;11.07;;;9.97;;
19087;SDS011;9676;50.916;13.352;2023-08-24T14:32:09;10.80;;;9.80;;
19087;SDS011;9676;50.916;13.352;2023-08-24T14:34:58;10.40;;;9.40;;
19087;SDS011;9676;50.916;13.352;2023-08-24T14:37:48;11.00;;;9.90;;
19087;SDS011;9676;50.916;13.352;2023-08-24T14:40:37;10.77;;;9.10;;
19087;SDS011;9676;50.916;13.352;2023-08-24T14:43:27;10.43;;;9.33;;
19087;SDS011;9676;50.916;13.352;2023-08-24T14:46:17;10.60;;;9.50;;
19087;SDS011;9676;50.916;13.352;2023-08-24T14:49:08;10.43;;;9.43;;
19087;SDS011;9676;50.916;13.352;2023-08-24T14:51:57;11.03;;;9.73;;
19087;SDS011;9676;50.916;13.352;2023-08-24T14:54:47;12.37;;;9.70;;
19087;SDS011;9676;50.916;13.352;2023-08-24T14:57:36;10.50;;;9.50;;
19087;SDS011;9676;50.916;13.352;2023-08-24T15:00:26;10.13;;;9.20;;
19087;SDS011;9676;50.916;13.352;2023-08-24T15:03:15;10.53;;;9.53;;
19087;SDS011;9676;50.916;13.352;2023-08-24T15:06:06;11.07;;;9.97;;
19087;SDS011;9676;50.916;13.352;2023-08-24T15:08:56;12.10;;;10.13;;
19087;SDS011;9676;50.916;13.352;2023-08-24T15:11:48;11.00;;;10.00;;
19087;SDS011;9676;50.916;13.352;2023-08-24T15:14:37;10.57;;;9.57;;
19087;SDS011;9676;50.916;13.352;2023-08-24T15:17:46;10.30;;;9.30;;
19087;SDS011;9676;50.916;13.352;2023-08-24T15:20:38;12.63;;;9.63;;
19087;SDS011;9676;50.916;13.352;2023-08-24T15:23:29;10.77;;;9.77;;
19087;SDS011;9676;50.916;13.352;2023-08-24T15:26:19;10.47;;;9.47;;
19087;SDS011;9676;50.916;13.352;2023-08-24T15:29:12;12.30;;;9.83;;
19087;SDS011;9676;50.916;13.352;2023-08-24T15:32:03;13.07;;;9.40;;
19087;SDS011;9676;50.916;13.352;2023-08-24T15:34:53;10.93;;;9.83;;
19087;SDS011;9676;50.916;13.352;2023-08-24T15:37:43;10.60;;;9.50;;
19087;SDS011;9676;50.916;13.352;2023-08-24T15:40:34;12.73;;;10.10;;
19087;SDS011;9676;50.916;13.352;2023-08-24T15:43:24;10.43;;;9.50;;
19087;SDS011;9676;50.916;13.352;2023-08-24T15:46:13;10.50;;;9.60;;
19087;SDS011;9676;50.916;13.352;2023-08-24T15:49:02;10.73;;;9.70;;
19087;SDS011;9676;50.916;13.352;2023-08-24T15:51:52;11.47;;;9.90;;
19087;SDS011;9676;50.916;13.352;2023-08-24T15:54:42;10.70;;;9.60;;
19087;SDS011;9676;50.916;13.352;2023-08-24T15:57:32;10.70;;;9.70;;
19087;SDS011;9676;50.916;13.352;2023-08-24T16:00:22;10.47;;;9.47;;
19087;SDS011;9676;50.916;13.352;2023-08-24T16:03:11;10.53;;;9.53;;
19087;SDS011;9676;50.916;13.352;2023-08-24T16:06:01;10.43;;;9.43;;
19087;SDS011;9676;50.916;13.352;2023-08-24T16:08:50;10.87;;;9.77;;
19087;SDS011;9676;50.916;13.352;2023-08-24T16:11:40;10.90;;;9.70;;
19087;SDS011;9676;50.916;13.352;2023-08-24T16:14:31;10.87;;;9.77;;
19087;SDS011;9676;50.916;13.352;2023-08-24T16:17:20;10.60;;;9.50;;
19087;SDS011;9676;50.916;13.352;2023-08-24T16:20:10;13.80;;;9.73;;
19087;SDS011;9676;50.916;13.352;2023-08-24T16:23:00;12.00;;;9.57;;
19087;SDS011;9676;50.916;13.352;2023-08-24T16:25:51;10.80;;;9.70;;
19087;SDS011;9676;50.916;13.352;2023-08-24T16:28:41;10.60;;;9.60;;
19087;SDS011;9676;50.916;13.352;2023-08-24T16:31:31;10.40;;;9.23;;
19087;SDS011;9676;50.916;13.352;2023-08-24T16:34:22;11.17;;;9.33;;
19087;SDS011;9676;50.916;13.352;2023-08-24T16:37:12;11.73;;;9.83;;
19087;SDS011;9676;50.916;13.352;2023-08-24T16:40:03;10.97;;;9.87;;
19087;SDS011;9676;50.916;13.352;2023-08-24T16:42:54;11.10;;;9.60;;
19087;SDS011;9676;50.916;13.352;2023-08-24T16:45:44;10.73;;;9.60;;
19087;SDS011;9676;50.916;13.352;2023-08-24T16:48:34;10.80;;;9.70;;
19087;SDS011;9676;50.916;13.352;2023-08-24T16:51:24;10.53;;;9.53;;
19087;SDS011;9676;50.916;13.352;2023-08-24T16:54:13;12.07;;;10.17;;
19087;SDS011;9676;50.916;13.352;2023-08-24T16:57:03;11.73;;;9.60;;